Roanoke, Virginia
Current Conditions -  °F | °C
As of 10:54 PM on Friday 19 Dec 2014 (Local Time) from KROA Reporting Station
Scattered Clouds Scattered Clouds  
Wind Chill: 25°   Ceiling: Unl
Heat Index: 32°   Visibility: 10mi
Dew Point: 22°   Wind: 8mph
Humidity: 66%   Direction: 360°N
Pressure: 30.21"   Gusts: NA
Location:  37.27°N, 79.94°W
Report Text: KROA 200354Z 36007KT 10SM SCT200 00/M06 A3021 RMK AO2 SLP238 T00001056
Loading
Personal Weather Stations






























Interactive Weather Map New forecast layout! Learn more

10-Day Weather Forecast

Advertisements
Track Severe Weather on mobile